Time;durP1;ratioP1;P1;durP2;ratioP2;P2;SDS_P1;SDS_P2;PMS_P1;PMS_P2;Temp;Humidity;BMP_temperature;BMP_pressure;BME280_temperature;BME280_humidity;BME280_pressure;Samples;Min_cycle;Max_cycle;Signal;HPM_P1;HPM_P2
2021/12/22 00:01:21;;;;;;;10.68;5.68;;;-7.00;68.60;;;;;;5058390;28;20040;-43
2021/12/22 00:03:47;;;;;;;13.63;6.20;;;-7.00;68.60;;;;;;5057875;28;20041;-46
2021/12/22 00:06:19;;;;;;;13.52;5.55;;;-7.00;68.60;;;;;;5058304;28;20039;-43
2021/12/22 00:08:44;;;;;;;12.20;5.75;;;-7.00;68.60;;;;;;5058333;28;20298;-45
2021/12/22 00:11:10;;;;;;;12.30;5.95;;;-7.00;68.50;;;;;;5058116;28;20035;-47
2021/12/22 00:13:36;;;;;;;14.00;5.50;;;-7.00;68.60;;;;;;5058313;28;20041;-47
2021/12/22 00:16:02;;;;;;;13.73;5.70;;;-7.00;68.50;;;;;;5057938;28;20029;-43
2021/12/22 00:18:28;;;;;;;11.93;5.53;;;-7.00;68.60;;;;;;5058135;28;20036;-43
2021/12/22 00:20:53;;;;;;;14.15;7.05;;;-7.10;68.60;;;;;;5058162;28;20044;-45
2021/12/22 00:23:19;;;;;;;10.20;5.07;;;-7.00;68.60;;;;;;5058022;28;20356;-43
2021/12/22 00:25:45;;;;;;;14.23;5.93;;;-7.10;68.40;;;;;;5057993;28;20111;-42
2021/12/22 00:28:11;;;;;;;12.25;5.85;;;-7.10;68.50;;;;;;5058455;28;20074;-46
2021/12/22 00:30:38;;;;;;;11.73;6.10;;;-7.10;68.40;;;;;;5058052;28;20356;-43
2021/12/22 00:33:06;;;;;;;11.73;5.40;;;-7.20;68.30;;;;;;5057942;28;20036;-45
2021/12/22 00:35:43;;;;;;;10.23;5.35;;;-7.20;68.30;;;;;;5057983;28;20029;-47
2021/12/22 00:38:12;;;;;;;10.55;5.95;;;-7.20;68.30;;;;;;5058115;28;20409;-43
2021/12/22 00:40:38;;;;;;;16.27;6.18;;;-7.30;68.20;;;;;;5057988;28;20309;-48
2021/12/22 00:43:04;;;;;;;10.73;5.78;;;-7.30;68.20;;;;;;5058025;28;20051;-45
2021/12/22 00:45:32;;;;;;;13.80;6.15;;;-7.30;68.30;;;;;;5057959;28;20409;-45
2021/12/22 00:47:58;;;;;;;13.20;5.78;;;-7.40;68.30;;;;;;5057637;28;20033;-49
2021/12/22 00:50:24;;;;;;;13.25;5.80;;;-7.40;68.80;;;;;;5057879;28;20112;-43
2021/12/22 00:52:50;;;;;;;13.43;6.38;;;-7.40;68.20;;;;;;5057833;28;20029;-47
2021/12/22 00:55:19;;;;;;;15.35;6.35;;;-7.50;68.20;;;;;;5057055;28;20356;-44
2021/12/22 00:57:49;;;;;;;12.85;6.38;;;-7.60;68.20;;;;;;5057644;28;20306;-46
2021/12/22 01:00:17;;;;;;;15.70;5.88;;;-7.60;68.20;;;;;;5057479;28;20041;-46
2021/12/22 01:02:44;;;;;;;17.17;6.22;;;-7.70;68.20;;;;;;5057601;28;20029;-42
2021/12/22 01:05:12;;;;;;;11.02;5.43;;;-7.70;68.20;;;;;;5056965;28;20036;-47
2021/12/22 01:07:43;;;;;;;12.35;5.70;;;-7.80;68.20;;;;;;5057527;28;20447;-47
2021/12/22 01:10:10;;;;;;;13.82;6.25;;;-7.80;68.20;;;;;;5057365;28;20072;-43
2021/12/22 01:12:36;;;;;;;13.60;5.90;;;-7.90;68.30;;;;;;5057406;28;20052;-50
2021/12/22 01:15:03;;;;;;;13.15;5.85;;;-8.00;68.30;;;;;;5056523;28;20367;-43
2021/12/22 01:17:37;;;;;;;11.32;5.55;;;-8.00;68.40;;;;;;5057429;28;20070;-47
2021/12/22 01:20:10;;;;;;;11.70;5.93;;;-8.00;68.50;;;;;;5056995;28;20086;-46
2021/12/22 01:23:02;;;;;;;16.83;6.63;;;-8.10;68.50;;;;;;5057288;28;20066;-43
2021/12/22 01:25:23;;;;;;;12.45;5.32;;;-8.10;68.60;;;;;;5057044;28;20056;-44
2021/12/22 01:27:49;;;;;;;14.52;6.13;;;-8.10;68.60;;;;;;5057069;28;20306;-43
2021/12/22 01:30:26;;;;;;;11.30;5.75;;;-8.20;68.50;;;;;;5056981;28;20048;-43
2021/12/22 01:32:55;;;;;;;12.32;6.40;;;-8.20;68.50;;;;;;5057021;28;20052;-44
2021/12/22 01:35:24;;;;;;;10.98;5.40;;;-8.30;68.50;;;;;;5056793;28;20032;-43
2021/12/22 01:37:49;;;;;;;15.25;6.60;;;-8.30;68.70;;;;;;5056966;28;20313;-43
2021/12/22 01:40:16;;;;;;;11.80;6.35;;;-8.30;68.70;;;;;;5056772;28;20116;-46
2021/12/22 01:42:43;;;;;;;15.20;6.43;;;-8.30;68.70;;;;;;5056831;28;20029;-47
2021/12/22 01:45:37;;;;;;;14.93;7.03;;;-8.40;68.70;;;;;;5056674;28;20518;-45
2021/12/22 01:50:53;;;;;;;12.68;6.60;;;-8.40;68.80;;;;;;5056443;28;20330;-44
2021/12/22 01:53:22;;;;;;;16.33;7.82;;;-8.40;68.90;;;;;;5056429;28;20421;-43
2021/12/22 01:58:43;;;;;;;14.63;7.07;;;-8.40;68.90;;;;;;5056073;28;20039;-43
2021/12/22 02:01:11;;;;;;;14.85;6.65;;;-8.40;68.70;;;;;;5056621;28;20320;-46
2021/12/22 02:03:38;;;;;;;14.98;6.40;;;-8.40;68.70;;;;;;5056004;28;20033;-46
2021/12/22 02:06:05;;;;;;;14.45;5.97;;;-8.50;68.70;;;;;;5055934;28;20445;-43
2021/12/22 02:08:32;;;;;;;14.75;6.60;;;-8.50;68.70;;;;;;5056435;28;20104;-42
2021/12/22 02:10:58;;;;;;;13.30;6.20;;;-8.50;68.70;;;;;;5055912;28;20021;-46
2021/12/22 02:13:29;;;;;;;12.43;5.70;;;-8.50;68.70;;;;;;5056090;28;20105;-45
2021/12/22 02:15:55;;;;;;;18.23;6.57;;;-8.50;68.70;;;;;;5055961;28;20037;-43
2021/12/22 02:18:21;;;;;;;12.63;5.82;;;-8.50;68.60;;;;;;5056258;28;20333;-43
2021/12/22 02:20:49;;;;;;;10.00;5.50;;;-8.50;68.60;;;;;;5055667;28;20058;-44
2021/12/22 02:23:16;;;;;;;13.80;6.65;;;-8.50;68.60;;;;;;5056227;28;20417;-46
2021/12/22 02:25:50;;;;;;;18.05;7.80;;;-8.50;68.50;;;;;;5055583;28;20075;-43
2021/12/22 02:28:21;;;;;;;11.18;5.70;;;-8.50;68.50;;;;;;5056209;28;20055;-43
2021/12/22 02:30:48;;;;;;;14.38;6.22;;;-8.50;68.50;;;;;;5055848;28;20325;-43
2021/12/22 02:33:25;;;;;;;16.05;6.25;;;-8.50;68.50;;;;;;5055775;28;20053;-46
2021/12/22 02:38:42;;;;;;;13.68;6.38;;;-8.60;68.40;;;;;;5056302;28;20104;-43
2021/12/22 02:41:12;;;;;;;13.35;6.28;;;-8.60;68.40;;;;;;5055961;28;20087;-43
2021/12/22 02:43:51;;;;;;;16.33;7.30;;;-8.60;68.40;;;;;;5055651;28;20033;-43
2021/12/22 02:46:23;;;;;;;13.25;5.93;;;-8.70;68.40;;;;;;5056074;28;20025;-46
2021/12/22 02:48:50;;;;;;;15.75;7.47;;;-8.70;68.50;;;;;;5055643;28;20052;-43
2021/12/22 02:51:17;;;;;;;13.82;6.00;;;-8.70;69.00;;;;;;5056084;28;20033;-46
2021/12/22 02:54:05;;;;;;;14.30;6.53;;;-8.70;68.60;;;;;;5055331;28;20041;-43
2021/12/22 02:57:19;;;;;;;13.07;6.13;;;-8.70;68.60;;;;;;5055318;28;20432;-46
2021/12/22 02:59:49;;;;;;;11.77;5.97;;;-8.80;68.50;;;;;;5056294;28;20112;-46
2021/12/22 03:02:34;;;;;;;15.77;6.85;;;-8.80;68.60;;;;;;5055961;28;20040;-43
2021/12/22 03:05:02;;;;;;;15.27;7.68;;;-8.80;68.50;;;;;;5055619;28;20104;-45
2021/12/22 03:07:30;;;;;;;15.25;7.38;;;-8.80;68.40;;;;;;5055960;28;20100;-46
2021/12/22 03:10:14;;;;;;;15.27;6.68;;;-8.80;68.50;;;;;;5055585;28;20137;-43
2021/12/22 03:12:40;;;;;;;15.20;7.03;;;-8.80;68.60;;;;;;5055506;28;20029;-46
2021/12/22 03:15:08;;;;;;;13.05;6.57;;;-8.80;68.70;;;;;;5055418;28;20033;-44
2021/12/22 03:17:35;;;;;;;21.65;8.18;;;-8.80;68.80;;;;;;5055400;28;20111;-43
2021/12/22 03:20:02;;;;;;;16.90;8.95;;;-8.90;68.70;;;;;;5055658;28;20451;-45
2021/12/22 03:22:27;;;;;;;13.88;7.57;;;-8.90;68.80;;;;;;5055395;28;20574;-45
2021/12/22 03:24:53;;;;;;;14.40;6.95;;;-8.90;68.80;;;;;;5055259;28;20025;-46
2021/12/22 03:27:20;;;;;;;17.80;7.57;;;-8.90;68.80;;;;;;5055285;28;20029;-50
2021/12/22 03:29:46;;;;;;;21.58;8.45;;;-8.90;68.90;;;;;;5054810;28;20037;-44
2021/12/22 03:32:12;;;;;;;15.88;7.43;;;-8.90;69.00;;;;;;5055438;28;20036;-44
2021/12/22 03:34:40;;;;;;;16.15;7.30;;;-8.90;69.20;;;;;;5055100;28;20083;-49
2021/12/22 03:37:07;;;;;;;15.98;6.88;;;-8.90;69.30;;;;;;5055149;28;20463;-47
2021/12/22 03:39:33;;;;;;;17.42;7.47;;;-8.90;69.30;;;;;;5058562;28;20111;-48
2021/12/22 03:41:59;;;;;;;16.25;7.18;;;-8.90;69.30;;;;;;5058943;28;20408;-45
2021/12/22 03:44:25;;;;;;;14.27;6.95;;;-9.00;69.30;;;;;;5058535;28;20033;-43
2021/12/22 03:46:51;;;;;;;21.67;9.02;;;-9.00;69.40;;;;;;5058896;28;20396;-50
2021/12/22 03:49:17;;;;;;;21.35;7.10;;;-9.00;69.40;;;;;;5058613;28;20110;-48
2021/12/22 03:51:43;;;;;;;16.42;6.93;;;-8.90;69.50;;;;;;5058717;28;20150;-43
2021/12/22 03:54:11;;;;;;;18.63;7.68;;;-9.00;69.40;;;;;;5058483;28;20033;-48
2021/12/22 03:56:38;;;;;;;18.42;8.18;;;-9.00;69.50;;;;;;5058384;28;20049;-43
2021/12/22 03:59:04;;;;;;;19.33;7.35;;;-8.90;69.60;;;;;;5058327;28;20100;-43
2021/12/22 04:01:30;;;;;;;22.23;8.15;;;-8.90;69.50;;;;;;5058874;28;20025;-45
2021/12/22 04:04:01;;;;;;;13.75;6.80;;;-9.00;69.50;;;;;;5058404;28;20048;-46
2021/12/22 04:06:27;;;;;;;15.23;6.95;;;-8.90;69.50;;;;;;5058469;28;20025;-48
2021/12/22 04:08:53;;;;;;;17.10;7.40;;;-9.00;69.50;;;;;;5058166;28;20083;-43
2021/12/22 04:11:18;;;;;;;16.92;6.93;;;-9.00;69.50;;;;;;5058423;28;20025;-45
2021/12/22 04:13:44;;;;;;;17.35;7.25;;;-9.00;69.50;;;;;;5058146;28;20095;-43
2021/12/22 04:16:10;;;;;;;17.20;7.18;;;-9.00;69.50;;;;;;5058072;28;20020;-46
2021/12/22 04:18:35;;;;;;;16.60;7.82;;;-9.00;69.70;;;;;;5058084;28;20029;-46
2021/12/22 04:21:01;;;;;;;13.48;6.95;;;-9.00;69.60;;;;;;5058020;28;20069;-43
2021/12/22 04:23:27;;;;;;;15.40;7.03;;;-9.00;69.60;;;;;;5058052;28;20080;-48
2021/12/22 04:25:53;;;;;;;16.60;7.55;;;-9.00;69.60;;;;;;5057740;28;20418;-47
2021/12/22 04:28:18;;;;;;;14.95;7.15;;;-9.00;69.60;;;;;;5057868;28;20341;-43
2021/12/22 04:30:48;;;;;;;16.25;7.45;;;-9.00;69.70;;;;;;5057972;28;20029;-44
2021/12/22 04:33:19;;;;;;;17.23;8.45;;;-9.00;69.80;;;;;;5057987;28;20472;-45
2021/12/22 04:35:46;;;;;;;22.55;7.68;;;-9.00;69.80;;;;;;5057825;28;20082;-46
2021/12/22 04:38:11;;;;;;;14.43;7.20;;;-9.00;69.90;;;;;;5057639;28;20036;-44
2021/12/22 04:40:37;;;;;;;15.55;7.57;;;-9.00;70.00;;;;;;5058025;28;20024;-46
2021/12/22 04:43:04;;;;;;;13.90;7.05;;;-9.00;70.10;;;;;;5056483;28;20025;-44
2021/12/22 04:45:30;;;;;;;16.42;8.38;;;-9.00;70.10;;;;;;5057927;28;20112;-43
2021/12/22 04:47:57;;;;;;;15.30;7.88;;;-9.10;70.10;;;;;;5057880;28;20052;-47
2021/12/22 04:50:23;;;;;;;16.85;7.35;;;-9.10;70.20;;;;;;5056786;28;20096;-44
2021/12/22 04:52:58;;;;;;;13.75;6.75;;;-9.10;70.40;;;;;;5057524;28;20029;-43
2021/12/22 04:55:26;;;;;;;14.18;6.65;;;-9.10;70.60;;;;;;5057193;28;20061;-47
2021/12/22 04:57:53;;;;;;;21.15;7.47;;;-9.10;70.60;;;;;;5057647;28;20041;-43
2021/12/22 05:00:21;;;;;;;18.35;7.38;;;-9.10;70.60;;;;;;5057554;28;20329;-47
2021/12/22 05:02:47;;;;;;;18.52;7.63;;;-9.10;70.70;;;;;;5057389;28;20040;-44
2021/12/22 05:05:12;;;;;;;12.10;6.78;;;-9.10;70.80;;;;;;5057281;28;20405;-43
2021/12/22 05:07:38;;;;;;;17.10;7.97;;;-9.10;70.90;;;;;;5057509;28;20025;-47
2021/12/22 05:10:07;;;;;;;15.23;7.57;;;-9.10;70.80;;;;;;5057214;28;20032;-47
2021/12/22 05:12:33;;;;;;;19.60;7.55;;;-9.10;70.90;;;;;;5057147;28;20029;-43
2021/12/22 05:14:59;;;;;;;14.63;7.13;;;-9.10;70.90;;;;;;5057041;28;20147;-44
2021/12/22 05:17:38;;;;;;;17.38;7.72;;;-9.10;71.00;;;;;;5057223;28;20116;-46
2021/12/22 05:20:06;;;;;;;16.80;7.78;;;-9.00;71.20;;;;;;5057262;28;20110;-49
2021/12/22 05:22:32;;;;;;;17.88;7.85;;;-9.00;71.10;;;;;;5057212;28;20029;-44
2021/12/22 05:24:59;;;;;;;18.85;7.97;;;-9.00;71.00;;;;;;5056583;28;20041;-44
2021/12/22 05:27:28;;;;;;;17.45;8.00;;;-9.00;71.00;;;;;;5057130;28;20055;-43
2021/12/22 05:29:54;;;;;;;18.33;8.15;;;-9.00;71.00;;;;;;5056739;28;20063;-46
2021/12/22 05:32:23;;;;;;;18.02;8.20;;;-9.00;71.00;;;;;;5056577;28;20033;-46
2021/12/22 05:34:48;;;;;;;17.92;8.18;;;-8.90;71.00;;;;;;5056378;28;20381;-46
2021/12/22 05:37:14;;;;;;;21.63;8.15;;;-8.90;71.00;;;;;;5056563;28;20057;-43
2021/12/22 05:39:39;;;;;;;22.95;8.85;;;-8.90;71.00;;;;;;5056317;28;20120;-45
2021/12/22 05:42:05;;;;;;;19.38;8.32;;;-8.90;71.10;;;;;;5056688;28;20321;-46
2021/12/22 05:44:31;;;;;;;17.02;7.88;;;-8.90;71.10;;;;;;5056375;28;20037;-47
2021/12/22 05:46:57;;;;;;;18.65;8.00;;;-8.90;71.10;;;;;;5056321;28;20020;-43
2021/12/22 05:49:22;;;;;;;18.60;7.93;;;-8.90;71.00;;;;;;5056291;28;20045;-46
2021/12/22 05:51:48;;;;;;;21.80;8.98;;;-8.90;71.00;;;;;;5056255;28;20329;-45
2021/12/22 05:54:14;;;;;;;22.38;10.15;;;-8.90;71.00;;;;;;5056138;28;20033;-46
2021/12/22 05:56:39;;;;;;;18.00;8.43;;;-8.80;71.10;;;;;;5055818;28;20390;-46
2021/12/22 05:59:05;;;;;;;20.52;8.60;;;-8.80;71.00;;;;;;5056031;28;20041;-48
2021/12/22 06:01:32;;;;;;;20.35;8.32;;;-8.80;71.00;;;;;;5055713;28;20333;-47
2021/12/22 06:03:59;;;;;;;18.92;8.38;;;-8.80;71.00;;;;;;5055704;28;20041;-45
2021/12/22 06:06:26;;;;;;;19.95;8.90;;;-8.80;71.00;;;;;;5056057;28;20043;-45
2021/12/22 06:08:52;;;;;;;20.92;8.82;;;-8.70;71.30;;;;;;5055863;28;20080;-43
2021/12/22 06:11:18;;;;;;;19.70;8.95;;;-8.70;71.20;;;;;;5056091;28;20025;-43
2021/12/22 06:13:43;;;;;;;17.67;9.18;;;-8.70;71.20;;;;;;5054496;28;20329;-47
2021/12/22 06:16:09;;;;;;;18.73;8.32;;;-8.60;71.30;;;;;;5055718;28;20033;-46
2021/12/22 06:18:41;;;;;;;15.48;8.05;;;-8.60;71.30;;;;;;5055649;28;20048;-44
2021/12/22 06:21:07;;;;;;;15.15;8.05;;;-8.50;71.40;;;;;;5055667;28;20029;-46
2021/12/22 06:23:33;;;;;;;16.50;7.90;;;-8.50;71.40;;;;;;5055437;28;20053;-47
2021/12/22 06:25:58;;;;;;;16.95;8.15;;;-8.50;71.30;;;;;;5055722;28;20029;-44
2021/12/22 06:28:24;;;;;;;18.58;8.75;;;-8.40;71.30;;;;;;5055786;28;20404;-47
2021/12/22 06:30:50;;;;;;;15.10;7.57;;;-8.40;71.20;;;;;;5055367;28;20104;-47
2021/12/22 06:33:15;;;;;;;20.00;8.00;;;-8.40;71.10;;;;;;5055727;28;20074;-44
2021/12/22 06:35:41;;;;;;;21.38;8.80;;;-8.40;71.10;;;;;;5054876;28;20025;-43
2021/12/22 06:38:07;;;;;;;17.98;7.93;;;-8.30;71.10;;;;;;5055465;28;20078;-45
2021/12/22 06:40:33;;;;;;;16.52;7.30;;;-8.30;71.20;;;;;;5055604;28;20033;-42
2021/12/22 06:42:59;;;;;;;17.85;7.95;;;-8.30;71.30;;;;;;5055719;28;20104;-46
2021/12/22 06:45:25;;;;;;;21.60;8.82;;;-8.20;71.50;;;;;;5055597;28;20453;-46
2021/12/22 06:47:52;;;;;;;15.95;8.13;;;-8.20;71.50;;;;;;5055450;28;20029;-43
2021/12/22 06:50:18;;;;;;;21.38;9.77;;;-8.10;71.60;;;;;;5055683;28;20087;-45
2021/12/22 06:52:44;;;;;;;19.45;8.95;;;-8.00;71.70;;;;;;5055677;28;20029;-42
2021/12/22 06:55:10;;;;;;;16.38;8.65;;;-7.90;71.80;;;;;;5055062;28;20065;-45
2021/12/22 06:57:35;;;;;;;15.75;8.18;;;-7.80;71.90;;;;;;5055276;28;20099;-46
2021/12/22 07:00:04;;;;;;;19.05;8.50;;;-7.80;71.90;;;;;;5055497;28;20501;-42
2021/12/22 07:02:35;;;;;;;16.48;7.53;;;-7.70;71.90;;;;;;5054244;28;20028;-43
2021/12/22 07:05:01;;;;;;;18.42;8.05;;;-7.60;71.90;;;;;;5055447;28;20041;-44
2021/12/22 07:07:26;;;;;;;19.45;8.52;;;-7.50;71.90;;;;;;5055421;28;20435;-44
2021/12/22 07:09:52;;;;;;;18.67;8.85;;;-7.50;71.80;;;;;;5055357;28;20436;-43
2021/12/22 07:12:18;;;;;;;20.65;8.98;;;-7.40;71.80;;;;;;5056138;28;20036;-44
2021/12/22 07:14:43;;;;;;;20.65;9.25;;;-7.30;71.70;;;;;;5059391;28;20033;-43
2021/12/22 07:17:10;;;;;;;24.70;11.23;;;-7.30;71.80;;;;;;5059202;28;20029;-44
2021/12/22 07:19:36;;;;;;;19.55;8.23;;;-7.20;72.00;;;;;;5059086;28;20052;-43
2021/12/22 07:22:02;;;;;;;18.00;9.23;;;-7.10;71.70;;;;;;5059255;28;20028;-43
2021/12/22 07:24:28;;;;;;;17.70;8.38;;;-7.00;71.20;;;;;;5058711;28;20064;-43
2021/12/22 07:26:53;;;;;;;21.30;8.48;;;-6.90;71.10;;;;;;5058714;28;20033;-46
2021/12/22 07:29:19;;;;;;;20.70;8.80;;;-6.90;70.90;;;;;;5058831;28;20029;-45
2021/12/22 07:31:44;;;;;;;17.10;8.60;;;-6.90;71.10;;;;;;5059044;28;20167;-45
2021/12/22 07:34:36;;;;;;;16.75;8.60;;;-6.80;71.30;;;;;;5058769;28;20032;-48
2021/12/22 07:37:23;;;;;;;17.48;7.95;;;-6.70;71.30;;;;;;5057876;28;20388;-45
2021/12/22 07:39:49;;;;;;;15.75;7.95;;;-6.60;71.20;;;;;;5058747;28;20040;-48
2021/12/22 07:42:15;;;;;;;15.48;8.20;;;-6.50;71.00;;;;;;5059092;28;20413;-47
2021/12/22 07:44:40;;;;;;;17.17;8.20;;;-6.40;70.80;;;;;;5058541;28;20036;-44
2021/12/22 07:47:06;;;;;;;14.45;7.90;;;-6.40;70.40;;;;;;5058346;28;20029;-43
2021/12/22 07:49:32;;;;;;;15.68;7.32;;;-6.30;69.90;;;;;;5058144;28;20033;-46
2021/12/22 07:51:58;;;;;;;14.00;7.65;;;-6.30;69.40;;;;;;5058310;28;20130;-42
2021/12/22 07:54:23;;;;;;;15.82;7.45;;;-6.30;69.30;;;;;;5058005;28;20372;-45
2021/12/22 07:56:49;;;;;;;14.88;7.28;;;-6.30;69.20;;;;;;5058496;28;20033;-42
2021/12/22 07:59:15;;;;;;;14.20;6.97;;;-6.30;69.20;;;;;;5058208;28;20105;-45
2021/12/22 08:01:40;;;;;;;17.73;8.23;;;-6.30;68.30;;;;;;5055621;28;20113;-46
2021/12/22 08:04:06;;;;;;;13.43;6.85;;;-6.30;67.80;;;;;;5057818;28;20405;-46
2021/12/22 08:06:32;;;;;;;12.57;6.68;;;-6.30;67.70;;;;;;5058215;28;20051;-45
2021/12/22 08:08:58;;;;;;;16.70;7.15;;;-6.30;67.60;;;;;;5057522;28;20064;-43
2021/12/22 08:11:23;;;;;;;14.38;6.70;;;-6.30;67.30;;;;;;5057680;28;20036;-43
2021/12/22 08:13:49;;;;;;;15.70;6.25;;;-6.30;66.90;;;;;;5057509;28;20037;-43
2021/12/22 08:16:15;;;;;;;10.40;5.95;;;-6.30;67.00;;;;;;5057566;28;20032;-46
2021/12/22 08:18:40;;;;;;;10.60;5.05;;;-6.30;66.80;;;;;;5057665;28;20432;-46
2021/12/22 08:21:06;;;;;;;10.77;5.55;;;-6.30;66.80;;;;;;5057823;28;20087;-42
2021/12/22 08:23:32;;;;;;;13.07;6.20;;;-6.30;66.20;;;;;;5057566;28;20055;-47
2021/12/22 08:25:58;;;;;;;10.23;5.82;;;-6.30;66.30;;;;;;5057116;28;20112;-44
2021/12/22 08:28:23;;;;;;;12.07;6.57;;;-6.20;66.40;;;;;;5057644;28;20036;-42
2021/12/22 08:30:49;;;;;;;14.63;6.88;;;-6.20;66.30;;;;;;5057371;28;20048;-45
2021/12/22 08:33:26;;;;;;;26.75;9.93;;;-6.20;66.50;;;;;;5057841;28;20060;-47
2021/12/22 08:38:50;;;;;;;13.02;6.45;;;-6.20;66.30;;;;;;5057630;28;20076;-45
2021/12/22 08:41:26;;;;;;;13.95;5.75;;;-6.20;66.10;;;;;;5057455;28;20029;-43
2021/12/22 08:43:54;;;;;;;12.95;6.78;;;-6.10;66.00;;;;;;5057166;28;20091;-44
2021/12/22 08:46:20;;;;;;;15.90;6.47;;;-6.10;66.30;;;;;;5057221;28;20470;-45
2021/12/22 08:48:46;;;;;;;14.13;6.80;;;-6.10;66.60;;;;;;5057299;28;20040;-43
2021/12/22 08:51:12;;;;;;;11.20;6.18;;;-6.10;66.70;;;;;;5057023;28;20406;-44
2021/12/22 08:53:38;;;;;;;16.05;7.07;;;-6.00;66.80;;;;;;5057091;28;20048;-45
2021/12/22 08:56:04;;;;;;;12.18;6.55;;;-5.90;66.60;;;;;;5056624;28;20516;-45
2021/12/22 08:58:30;;;;;;;12.48;6.35;;;-5.90;66.10;;;;;;5057276;28;20059;-43
2021/12/22 09:00:57;;;;;;;16.30;6.53;;;-5.90;66.10;;;;;;5057036;28;20045;-45
2021/12/22 09:03:23;;;;;;;16.60;6.68;;;-5.90;66.00;;;;;;5057051;28;20075;-45
2021/12/22 09:05:48;;;;;;;13.23;7.95;;;-5.90;66.20;;;;;;5056260;28;20037;-44
2021/12/22 09:08:14;;;;;;;13.55;6.97;;;-5.90;66.00;;;;;;5057080;28;20027;-45
2021/12/22 09:10:40;;;;;;;13.45;6.45;;;-5.90;66.10;;;;;;5056708;28;20024;-47
2021/12/22 09:13:06;;;;;;;14.38;7.13;;;-5.80;66.10;;;;;;5056640;28;20013;-47
2021/12/22 09:15:32;;;;;;;12.55;6.18;;;-5.80;66.20;;;;;;5056540;28;20041;-44
2021/12/22 09:17:58;;;;;;;12.77;6.70;;;-5.70;66.20;;;;;;5056969;28;20495;-43
2021/12/22 09:20:23;;;;;;;13.13;6.82;;;-5.60;66.00;;;;;;5056360;28;20033;-46
2021/12/22 09:22:49;;;;;;;11.75;6.47;;;-5.60;66.00;;;;;;5056353;28;20119;-45
2021/12/22 09:25:15;;;;;;;12.15;6.75;;;-5.50;65.90;;;;;;5056609;28;20071;-43
2021/12/22 09:27:40;;;;;;;13.45;6.45;;;-5.40;66.00;;;;;;5056627;28;20029;-45
2021/12/22 09:30:08;;;;;;;19.08;6.53;;;-5.40;66.00;;;;;;5056444;28;20476;-43
2021/12/22 09:32:34;;;;;;;20.80;9.00;;;-5.30;65.60;;;;;;5055926;28;20033;-44
2021/12/22 09:34:59;;;;;;;14.85;6.57;;;-5.30;65.30;;;;;;5055647;28;20344;-45
2021/12/22 09:37:25;;;;;;;12.35;6.05;;;-5.20;64.90;;;;;;5055731;28;20060;-47
2021/12/22 09:39:50;;;;;;;16.92;7.25;;;-5.30;64.60;;;;;;5056222;28;20306;-46
2021/12/22 09:42:16;;;;;;;12.55;6.47;;;-5.30;64.70;;;;;;5056355;28;20029;-44
2021/12/22 09:44:44;;;;;;;16.10;7.03;;;-5.30;64.40;;;;;;5056116;28;20346;-46
2021/12/22 09:47:22;;;;;;;15.40;6.43;;;-5.40;64.40;;;;;;5056283;28;20116;-45
2021/12/22 09:50:06;;;;;;;14.98;7.13;;;-5.40;64.40;;;;;;5056060;28;20427;-44
2021/12/22 09:52:36;;;;;;;17.52;8.30;;;-5.50;64.40;;;;;;5056326;28;20040;-45
2021/12/22 09:55:06;;;;;;;11.98;6.28;;;-5.50;64.50;;;;;;5055166;28;20045;-44
2021/12/22 09:57:33;;;;;;;12.45;6.30;;;-5.50;64.20;;;;;;5055733;28;20345;-44
2021/12/22 10:00:00;;;;;;;14.88;6.63;;;-5.50;64.00;;;;;;5055958;28;20113;-43
2021/12/22 10:02:29;;;;;;;14.40;6.40;;;-5.60;63.30;;;;;;5055607;28;20043;-46
2021/12/22 10:05:00;;;;;;;18.55;8.60;;;-5.70;63.10;;;;;;5055705;28;20115;-45
2021/12/22 10:07:30;;;;;;;15.10;6.85;;;-5.80;63.30;;;;;;5055766;28;20033;-46
2021/12/22 10:10:04;;;;;;;13.85;6.93;;;-5.80;63.20;;;;;;5055442;28;20041;-47
2021/12/22 10:12:30;;;;;;;15.95;6.72;;;-5.90;63.60;;;;;;5055797;28;20048;-44
2021/12/22 10:15:03;;;;;;;15.02;7.50;;;-5.80;63.80;;;;;;5055538;28;20320;-44
2021/12/22 10:17:40;;;;;;;17.95;6.88;;;-5.90;63.50;;;;;;5055715;28;20029;-46
2021/12/22 10:20:10;;;;;;;15.75;8.10;;;-5.80;64.00;;;;;;5055780;28;20350;-43
2021/12/22 10:22:44;;;;;;;12.07;6.50;;;-5.80;64.40;;;;;;5055409;28;20047;-46
2021/12/22 10:25:11;;;;;;;12.05;6.30;;;-5.70;64.50;;;;;;5055644;28;20037;-45
2021/12/22 10:27:39;;;;;;;19.88;7.55;;;-5.60;64.10;;;;;;5055743;28;20488;-45
2021/12/22 10:30:21;;;;;;;15.13;6.63;;;-5.60;64.10;;;;;;5055545;28;20302;-49
2021/12/22 10:32:46;;;;;;;15.02;6.70;;;-5.50;63.70;;;;;;5055230;28;20033;-43
2021/12/22 10:35:12;;;;;;;13.93;5.68;;;-5.40;63.90;;;;;;5055056;28;20036;-46
2021/12/22 10:37:44;;;;;;;14.25;6.72;;;-5.40;63.20;;;;;;5055167;28;20033;-43
2021/12/22 10:40:32;;;;;;;12.60;6.70;;;-5.40;63.40;;;;;;5055053;28;20040;-46
2021/12/22 10:42:59;;;;;;;13.82;5.80;;;-5.30;63.00;;;;;;5053246;28;20064;-44
2021/12/22 10:45:27;;;;;;;12.90;5.65;;;-5.30;62.30;;;;;;5038981;28;20037;-44
2021/12/22 10:50:41;;;;;;;12.30;6.75;;;-5.40;62.40;;;;;;5059203;28;20036;-44
2021/12/22 10:53:08;;;;;;;12.43;5.80;;;-5.40;62.80;;;;;;5059093;28;20045;-43
2021/12/22 10:55:43;;;;;;;15.63;6.10;;;-5.40;63.10;;;;;;5058691;28;20099;-46
2021/12/22 10:58:21;;;;;;;10.73;5.85;;;-5.40;62.80;;;;;;5059483;28;20032;-48
2021/12/22 11:01:13;;;;;;;12.43;6.53;;;-5.40;62.60;;;;;;5058699;28;20037;-46
2021/12/22 11:03:43;;;;;;;20.77;8.45;;;-5.40;62.80;;;;;;5059363;28;20029;-44
2021/12/22 11:06:24;;;;;;;12.13;7.22;;;-5.40;62.90;;;;;;5059298;28;20127;-47
2021/12/22 11:08:53;;;;;;;;;;;-5.30;63.40;;;;;;5059245;28;20113;-46
2021/12/22 11:11:19;;;;;;;15.95;9.05;;;-5.30;63.60;;;;;;5058579;28;19908;-45
2021/12/22 11:14:06;;;;;;;11.45;6.22;;;-5.20;63.60;;;;;;5058844;28;20245;-46
2021/12/22 11:16:32;;;;;;;15.32;6.40;;;-5.20;63.80;;;;;;5059059;28;20326;-45
2021/12/22 11:19:27;;;;;;;12.43;5.57;;;-5.10;63.30;;;;;;5058804;28;20179;-47
2021/12/22 11:22:03;;;;;;;11.48;6.10;;;-5.10;63.30;;;;;;5058478;28;20052;-45
2021/12/22 11:24:30;;;;;;;13.98;6.25;;;-5.10;63.30;;;;;;5058955;28;20366;-45
2021/12/22 11:26:57;;;;;;;12.38;5.95;;;-5.10;63.10;;;;;;5058555;28;20045;-44
2021/12/22 11:29:24;;;;;;;13.23;6.40;;;-5.00;63.30;;;;;;5058752;28;20075;-47
2021/12/22 11:31:50;;;;;;;13.48;6.15;;;-5.00;62.70;;;;;;5058544;28;20033;-45
2021/12/22 11:34:17;;;;;;;13.43;5.32;;;-5.00;62.70;;;;;;5058581;28;20093;-43
2021/12/22 11:36:44;;;;;;;12.13;5.18;;;-4.90;62.50;;;;;;5058755;28;20040;-43
2021/12/22 11:39:10;;;;;;;12.55;5.75;;;-5.00;62.30;;;;;;5058643;28;20102;-43
2021/12/22 11:41:43;;;;;;;9.63;5.57;;;-5.00;62.60;;;;;;5058706;28;20090;-43
2021/12/22 11:44:10;;;;;;;12.55;5.93;;;-4.90;62.70;;;;;;5058579;28;20032;-45
2021/12/22 11:46:37;;;;;;;11.02;5.85;;;-5.00;62.80;;;;;;5058579;28;20114;-44
2021/12/22 11:49:04;;;;;;;13.35;5.65;;;-4.90;63.10;;;;;;5058311;28;20068;-44
2021/12/22 11:51:32;;;;;;;12.35;5.22;;;-4.90;62.90;;;;;;5058193;28;20033;-44
2021/12/22 11:54:00;;;;;;;12.65;6.00;;;-5.00;62.70;;;;;;5057845;28;20039;-43
2021/12/22 11:56:47;;;;;;;13.23;6.15;;;-4.90;63.00;;;;;;5057929;28;20110;-43
2021/12/22 11:59:39;;;;;;;10.70;5.93;;;-4.90;63.20;;;;;;5057748;28;20040;-44
2021/12/22 12:02:24;;;;;;;11.45;5.90;;;-4.90;63.40;;;;;;5058206;28;20143;-43
2021/12/22 12:04:53;;;;;;;10.10;5.75;;;-4.90;63.30;;;;;;5057949;28;20112;-43
2021/12/22 12:08:07;;;;;;;8.80;5.05;;;-5.00;63.00;;;;;;5058120;28;20314;-43
2021/12/22 12:10:39;;;;;;;11.00;4.82;;;-5.00;62.90;;;;;;5056455;28;20041;-44
2021/12/22 12:13:23;;;;;;;13.32;5.07;;;-5.10;63.00;;;;;;5058274;28;20390;-42
2021/12/22 12:22:33;;;;;;;10.65;5.38;;;-5.20;63.10;;;;;;5057777;28;20368;-45
2021/12/22 12:25:14;;;;;;;12.85;6.68;;;-5.30;63.20;;;;;;5057475;28;20037;-43
2021/12/22 12:27:41;;;;;;;;;;;-5.40;63.20;;;;;;5058180;28;20029;-45
2021/12/22 12:30:26;;;;;;;10.43;6.10;;;-5.40;63.50;;;;;;5057730;28;19940;-45
2021/12/22 12:32:53;;;;;;;10.70;5.05;;;-5.50;63.30;;;;;;5057593;28;20132;-44
2021/12/22 12:35:28;;;;;;;9.95;4.72;;;-5.50;62.80;;;;;;5057492;28;20091;-44
2021/12/22 12:38:16;;;;;;;19.25;6.10;;;-5.60;62.40;;;;;;5057559;28;20380;-44
2021/12/22 12:40:57;;;;;;;12.65;5.80;;;-5.70;62.40;;;;;;5056926;28;20032;-44
2021/12/22 12:46:19;;;;;;;10.15;5.60;;;-5.70;63.00;;;;;;5057241;28;20040;-38
2021/12/22 12:48:55;;;;;;;9.57;5.18;;;-5.80;62.90;;;;;;5056930;28;20543;-45
2021/12/22 12:51:25;;;;;;;10.63;5.80;;;-5.80;63.10;;;;;;5057015;28;20087;-46
2021/12/22 12:53:54;;;;;;;10.88;5.35;;;-5.80;63.90;;;;;;5053165;28;20033;-51
2021/12/22 12:56:23;;;;;;;21.38;8.40;;;-5.80;63.50;;;;;;5036612;28;20053;-47
2021/12/22 12:58:56;;;;;;;14.75;7.00;;;-5.80;63.60;;;;;;5037174;28;20041;-43
2021/12/22 13:01:46;;;;;;;9.63;5.05;;;-5.80;64.30;;;;;;5036979;28;20091;-45
2021/12/22 13:04:26;;;;;;;12.32;5.43;;;-5.80;63.60;;;;;;5037275;28;20029;-43
2021/12/22 13:06:54;;;;;;;9.88;3.97;;;-5.80;63.50;;;;;;5036857;28;20039;-46
2021/12/22 13:09:21;;;;;;;7.90;4.20;;;-5.80;62.60;;;;;;5037135;28;20034;-45
2021/12/22 13:17:20;;;;;;;10.45;4.25;;;-5.90;61.60;;;;;;5036902;28;20040;-42